createdAt,value
2018-01-06T00:00:09.831Z,925.52
2018-01-06T00:01:41.650Z,925.53
2018-01-06T00:03:13.468Z,925.47
2018-01-06T00:04:45.286Z,925.47
2018-01-06T00:06:17.104Z,925.48
2018-01-06T00:07:48.923Z,925.53
2018-01-06T00:09:20.741Z,925.56
2018-01-06T00:10:52.559Z,925.59
2018-01-06T00:12:24.377Z,925.61
2018-01-06T00:13:56.196Z,925.65
2018-01-06T00:15:28.014Z,925.67
2018-01-06T00:16:59.832Z,925.68
2018-01-06T00:18:31.684Z,925.74
2018-01-06T00:20:03.472Z,925.75
2018-01-06T00:21:35.286Z,925.80
2018-01-06T00:23:07.103Z,925.83
2018-01-06T00:24:38.921Z,925.86
2018-01-06T00:26:10.739Z,925.85
2018-01-06T00:27:42.556Z,925.83
2018-01-06T00:29:14.374Z,925.86
2018-01-06T00:30:46.192Z,925.87
2018-01-06T00:32:18.010Z,925.85
2018-01-06T00:33:49.827Z,925.86
2018-01-06T00:35:21.645Z,925.87
2018-01-06T00:36:53.462Z,925.86
2018-01-06T00:38:25.281Z,925.87
2018-01-06T00:39:57.098Z,925.90
2018-01-06T00:41:28.916Z,925.88
2018-01-06T00:43:00.735Z,925.90
2018-01-06T00:44:32.553Z,925.87
2018-01-06T00:46:04.370Z,925.85
2018-01-06T00:47:36.188Z,925.85
2018-01-06T00:49:08.006Z,925.82
2018-01-06T00:50:39.823Z,925.87
2018-01-06T00:52:11.642Z,925.84
2018-01-06T00:53:43.459Z,925.87
2018-01-06T00:55:15.277Z,925.89
2018-01-06T00:56:47.095Z,925.91
2018-01-06T00:58:19.012Z,925.93
2018-01-06T00:59:50.730Z,925.90
2018-01-06T01:01:22.547Z,925.92
2018-01-06T01:02:54.366Z,925.92
2018-01-06T01:04:26.186Z,925.86
2018-01-06T01:05:58.000Z,925.91
2018-01-06T01:07:29.819Z,925.92
2018-01-06T01:09:01.636Z,925.95
2018-01-06T01:10:33.456Z,925.90
2018-01-06T01:12:05.272Z,925.95
2018-01-06T01:13:37.089Z,925.93
2018-01-06T01:15:08.908Z,925.93
2018-01-06T01:16:40.725Z,925.95
2018-01-06T01:18:12.542Z,925.93
2018-01-06T01:19:44.360Z,925.99
2018-01-06T01:21:16.177Z,925.96
2018-01-06T01:22:47.995Z,925.96
2018-01-06T01:24:19.812Z,925.91
2018-01-06T01:25:51.628Z,925.85
2018-01-06T01:27:23.446Z,925.87
2018-01-06T01:28:55.363Z,925.80
2018-01-06T01:30:27.080Z,925.87
2018-01-06T01:31:58.899Z,925.91
2018-01-06T01:33:30.713Z,925.90
2018-01-06T01:35:02.531Z,925.90
2018-01-06T01:36:34.347Z,925.90
2018-01-06T01:38:06.163Z,925.88
2018-01-06T01:39:37.980Z,925.92
2018-01-06T01:41:09.796Z,925.90
2018-01-06T01:42:41.612Z,925.88
2018-01-06T01:44:13.429Z,925.81
2018-01-06T01:45:45.246Z,925.80
2018-01-06T01:47:17.062Z,925.82
2018-01-06T01:48:48.879Z,925.80
2018-01-06T01:50:20.697Z,925.80
2018-01-06T01:51:52.512Z,925.76
2018-01-06T01:53:24.329Z,925.79
2018-01-06T01:54:56.145Z,925.78
2018-01-06T01:56:27.965Z,925.76
2018-01-06T01:57:59.778Z,925.80
2018-01-06T01:59:31.594Z,925.83
2018-01-06T02:01:03.412Z,925.83
2018-01-06T02:02:35.228Z,925.86
2018-01-06T02:04:07.044Z,925.80
2018-01-06T02:05:38.861Z,925.75
2018-01-06T02:07:10.678Z,925.71
2018-01-06T02:08:42.494Z,925.69
2018-01-06T02:10:14.312Z,925.71
2018-01-06T02:11:46.130Z,925.67
2018-01-06T02:13:17.944Z,925.73
2018-01-06T02:14:49.760Z,925.70
2018-01-06T02:16:21.577Z,925.71
2018-01-06T02:17:53.394Z,925.70
2018-01-06T02:19:25.210Z,925.67
2018-01-06T02:20:57.027Z,925.60
2018-01-06T02:22:28.843Z,925.60
2018-01-06T02:24:00.660Z,925.55
2018-01-06T02:25:32.476Z,925.53
2018-01-06T02:27:04.292Z,925.50
2018-01-06T02:28:36.108Z,925.50
2018-01-06T02:30:07.925Z,925.50
2018-01-06T02:31:39.743Z,925.47
2018-01-06T02:33:11.559Z,925.43
2018-01-06T02:34:43.374Z,925.42
2018-01-06T02:36:15.192Z,925.38
2018-01-06T02:37:47.014Z,925.39
2018-01-06T02:39:18.824Z,925.35
2018-01-06T02:40:50.640Z,925.30
2018-01-06T02:42:22.464Z,925.29
2018-01-06T02:43:54.272Z,925.33
2018-01-06T02:45:26.090Z,925.30
2018-01-06T02:46:57.906Z,925.27
2018-01-06T02:48:29.723Z,925.22
2018-01-06T02:50:01.539Z,925.24
2018-01-06T02:51:33.355Z,925.18
2018-01-06T02:53:05.171Z,925.18
2018-01-06T02:54:36.992Z,925.18
2018-01-06T02:56:08.807Z,925.20
2018-01-06T02:57:40.621Z,925.19
2018-01-06T02:59:12.437Z,925.20
2018-01-06T03:00:44.504Z,925.22
2018-01-06T03:02:16.070Z,925.17
2018-01-06T03:03:47.887Z,925.19
2018-01-06T03:05:19.703Z,925.16
2018-01-06T03:06:51.520Z,925.14
2018-01-06T03:08:23.336Z,925.05
2018-01-06T03:09:55.152Z,925.01
2018-01-06T03:11:26.968Z,925.03
2018-01-06T03:12:58.787Z,925.03
2018-01-06T03:14:30.602Z,925.01
2018-01-06T03:16:02.418Z,924.97
2018-01-06T03:17:34.235Z,924.98
2018-01-06T03:19:06.051Z,924.95
2018-01-06T03:20:37.871Z,924.91
2018-01-06T03:22:09.684Z,924.84
2018-01-06T03:23:41.500Z,924.91
2018-01-06T03:25:13.317Z,924.84
2018-01-06T03:26:45.134Z,924.86
2018-01-06T03:28:16.951Z,924.87
2018-01-06T03:29:48.767Z,924.86
2018-01-06T03:31:20.934Z,924.85
2018-01-06T03:32:52.400Z,924.85
2018-01-06T03:34:24.215Z,924.82
2018-01-06T03:35:56.033Z,924.83
2018-01-06T03:37:27.849Z,924.88
2018-01-06T03:38:59.665Z,924.86
2018-01-06T03:40:31.482Z,924.88
2018-01-06T03:42:03.300Z,924.84
2018-01-06T03:43:35.115Z,924.82
2018-01-06T03:45:06.931Z,924.85
2018-01-06T03:46:38.748Z,924.83
2018-01-06T03:48:10.564Z,924.84
2018-01-06T03:49:42.383Z,924.85
2018-01-06T03:51:14.197Z,924.85
2018-01-06T03:52:46.014Z,924.89
2018-01-06T03:54:17.835Z,924.90
2018-01-06T03:55:49.647Z,924.90
2018-01-06T03:57:21.464Z,924.87
2018-01-06T03:58:53.283Z,924.84
2018-01-06T04:00:25.097Z,924.77
2018-01-06T04:01:57.114Z,924.76
2018-01-06T04:03:28.730Z,924.80
2018-01-06T04:05:00.548Z,924.74
2018-01-06T04:06:32.364Z,924.69
2018-01-06T04:08:04.185Z,924.74
2018-01-06T04:09:35.997Z,924.70
2018-01-06T04:11:07.815Z,924.65
2018-01-06T04:12:39.631Z,924.62
2018-01-06T04:14:11.448Z,924.59
2018-01-06T04:15:43.265Z,924.59
2018-01-06T04:17:15.081Z,924.56
2018-01-06T04:18:46.898Z,924.53
2018-01-06T04:20:18.714Z,924.52
2018-01-06T04:21:50.531Z,924.51
2018-01-06T04:23:22.348Z,924.44
2018-01-06T04:24:54.165Z,924.44
2018-01-06T04:26:25.982Z,924.42
2018-01-06T04:27:57.799Z,924.40
2018-01-06T04:29:29.616Z,924.43
2018-01-06T04:31:01.433Z,924.41
2018-01-06T04:32:33.450Z,924.41
2018-01-06T04:34:05.067Z,924.38
2018-01-06T04:35:36.884Z,924.39
2018-01-06T04:37:08.702Z,924.40
2018-01-06T04:38:40.518Z,924.39
2018-01-06T04:40:12.335Z,924.35
2018-01-06T04:41:44.152Z,924.32
2018-01-06T04:43:15.976Z,924.31
2018-01-06T04:44:47.787Z,924.26
2018-01-06T04:46:19.604Z,924.29
2018-01-06T04:47:51.421Z,924.31
2018-01-06T04:49:23.239Z,924.28
2018-01-06T04:50:55.056Z,924.25
2018-01-06T04:52:26.873Z,924.25
2018-01-06T04:53:58.690Z,924.27
2018-01-06T04:55:30.508Z,924.32
2018-01-06T04:57:02.325Z,924.24
2018-01-06T04:58:34.142Z,924.22
2018-01-06T05:00:05.960Z,924.21
2018-01-06T05:01:37.779Z,924.19
2018-01-06T05:03:09.595Z,924.17
2018-01-06T05:04:41.412Z,924.18
2018-01-06T05:06:13.230Z,924.13
2018-01-06T05:07:45.047Z,924.09
2018-01-06T05:09:16.864Z,924.04
2018-01-06T05:10:48.682Z,924.00
2018-01-06T05:12:20.499Z,924.03
2018-01-06T05:13:52.326Z,924.04
2018-01-06T05:15:24.133Z,924.02
2018-01-06T05:16:55.951Z,924.02
2018-01-06T05:18:27.769Z,924.00
2018-01-06T05:19:59.586Z,924.01
2018-01-06T05:21:31.403Z,923.99
2018-01-06T05:23:03.221Z,923.96
2018-01-06T05:24:35.038Z,923.97
2018-01-06T05:26:06.855Z,923.99
2018-01-06T05:27:38.673Z,923.94
2018-01-06T05:29:10.490Z,923.93
2018-01-06T05:30:42.308Z,923.91
2018-01-06T05:32:14.125Z,923.96
2018-01-06T05:33:46.093Z,923.98
2018-01-06T05:35:17.760Z,923.97
2018-01-06T05:36:49.576Z,923.95
2018-01-06T05:38:21.393Z,923.93
2018-01-06T05:39:53.209Z,923.91
2018-01-06T05:41:25.026Z,923.92
2018-01-06T05:42:56.844Z,923.92
2018-01-06T05:44:28.661Z,923.91
2018-01-06T05:46:00.478Z,923.91
2018-01-06T05:47:32.295Z,923.92
2018-01-06T05:49:04.157Z,923.95
2018-01-06T05:50:35.928Z,923.93
2018-01-06T05:52:07.745Z,923.97
2018-01-06T05:53:39.562Z,923.92
2018-01-06T05:55:11.379Z,923.88
2018-01-06T05:56:43.201Z,923.89
2018-01-06T05:58:15.014Z,923.89
2018-01-06T05:59:46.830Z,923.90
2018-01-06T06:01:18.647Z,923.90
2018-01-06T06:02:50.465Z,923.89
2018-01-06T06:04:22.439Z,923.85
2018-01-06T06:05:54.101Z,923.80
2018-01-06T06:07:25.916Z,923.74
2018-01-06T06:08:57.733Z,923.75
2018-01-06T06:10:29.550Z,923.78
2018-01-06T06:12:01.367Z,923.80
2018-01-06T06:13:33.184Z,923.81
2018-01-06T06:15:05.002Z,923.77
2018-01-06T06:16:36.818Z,923.83
2018-01-06T06:18:08.693Z,923.83
2018-01-06T06:19:40.453Z,923.83
2018-01-06T06:21:12.273Z,923.79
2018-01-06T06:22:44.089Z,923.77
2018-01-06T06:24:15.904Z,923.77
2018-01-06T06:25:47.722Z,923.73
2018-01-06T06:27:19.539Z,923.75
2018-01-06T06:28:51.358Z,923.71
2018-01-06T06:30:23.174Z,923.70
2018-01-06T06:31:54.993Z,923.65
2018-01-06T06:33:26.809Z,923.63
2018-01-06T06:34:58.776Z,923.63
2018-01-06T06:36:30.444Z,923.63
2018-01-06T06:38:02.261Z,923.62
2018-01-06T06:39:34.080Z,923.61
2018-01-06T06:41:05.896Z,923.59
2018-01-06T06:42:37.713Z,923.60
2018-01-06T06:44:09.530Z,923.62
2018-01-06T06:45:41.347Z,923.64
2018-01-06T06:47:13.164Z,923.68
2018-01-06T06:48:44.981Z,923.72
2018-01-06T06:50:16.806Z,923.68
2018-01-06T06:51:48.615Z,923.63
2018-01-06T06:53:20.433Z,923.66
2018-01-06T06:54:52.249Z,923.70
2018-01-06T06:56:24.067Z,923.68
2018-01-06T06:57:55.883Z,923.71
2018-01-06T06:59:27.701Z,923.68
2018-01-06T07:00:59.518Z,923.73
2018-01-06T07:02:31.336Z,923.74
2018-01-06T07:04:03.153Z,923.75
2018-01-06T07:05:35.120Z,923.72
2018-01-06T07:07:06.789Z,923.71
2018-01-06T07:08:38.605Z,923.69
2018-01-06T07:10:10.494Z,923.69
2018-01-06T07:11:42.266Z,923.71
2018-01-06T07:13:14.057Z,923.74
2018-01-06T07:14:45.874Z,923.71
2018-01-06T07:16:17.692Z,923.70
2018-01-06T07:17:49.513Z,923.70
2018-01-06T07:19:21.327Z,923.69
2018-01-06T07:20:53.145Z,923.69
2018-01-06T07:22:24.963Z,923.73
2018-01-06T07:23:56.780Z,923.72
2018-01-06T07:25:28.596Z,923.73
2018-01-06T07:27:00.414Z,923.75
2018-01-06T07:28:32.232Z,923.77
2018-01-06T07:30:04.050Z,923.73
2018-01-06T07:31:35.870Z,923.76
2018-01-06T07:33:07.685Z,923.75
2018-01-06T07:34:39.506Z,923.70
2018-01-06T07:36:11.320Z,923.71
2018-01-06T07:37:43.138Z,923.71
2018-01-06T07:39:14.955Z,923.74
2018-01-06T07:40:46.775Z,923.75
2018-01-06T07:42:18.591Z,923.78
2018-01-06T07:43:50.409Z,923.82
2018-01-06T07:45:22.227Z,923.82
2018-01-06T07:46:54.044Z,923.80
2018-01-06T07:48:25.862Z,923.84
2018-01-06T07:49:57.680Z,923.80
2018-01-06T07:51:29.497Z,923.84
2018-01-06T07:53:01.315Z,923.82
2018-01-06T07:54:33.132Z,923.77
2018-01-06T07:56:04.949Z,923.74
2018-01-06T07:57:36.767Z,923.74
2018-01-06T07:59:08.588Z,923.75
2018-01-06T08:00:40.401Z,923.77
2018-01-06T08:02:12.219Z,923.86
2018-01-06T08:03:44.036Z,923.88
2018-01-06T08:05:15.853Z,923.88
2018-01-06T08:06:47.920Z,923.88
2018-01-06T08:08:19.488Z,923.87
2018-01-06T08:09:51.305Z,923.87
2018-01-06T08:11:23.122Z,923.89
2018-01-06T08:12:54.943Z,923.93
2018-01-06T08:14:26.757Z,924.00
2018-01-06T08:15:58.576Z,924.05
2018-01-06T08:17:30.392Z,924.11
2018-01-06T08:19:02.210Z,924.09
2018-01-06T08:20:34.027Z,924.11
2018-01-06T08:22:05.845Z,924.13
2018-01-06T08:23:37.661Z,924.14
2018-01-06T08:25:09.478Z,924.13
2018-01-06T08:26:41.341Z,924.15
2018-01-06T08:28:13.114Z,924.16
2018-01-06T08:29:44.931Z,924.27
2018-01-06T08:31:16.748Z,924.28
2018-01-06T08:32:48.566Z,924.26
2018-01-06T08:34:20.385Z,924.26
2018-01-06T08:35:52.201Z,924.30
2018-01-06T08:37:24.019Z,924.33
2018-01-06T08:38:55.837Z,924.35
2018-01-06T08:40:27.654Z,924.33
2018-01-06T08:41:59.472Z,924.35
2018-01-06T08:43:31.294Z,924.33
2018-01-06T08:45:03.108Z,924.32
2018-01-06T08:46:34.925Z,924.38
2018-01-06T08:48:06.743Z,924.41
2018-01-06T08:49:38.561Z,924.47
2018-01-06T08:51:10.379Z,924.40
2018-01-06T08:52:42.197Z,924.42
2018-01-06T08:54:14.039Z,924.47
2018-01-06T08:55:45.832Z,924.45
2018-01-06T08:57:17.651Z,924.43
2018-01-06T08:58:49.471Z,924.47
2018-01-06T09:00:21.287Z,924.49
2018-01-06T09:01:53.105Z,924.52
2018-01-06T09:03:24.923Z,924.53
2018-01-06T09:04:56.741Z,924.56
2018-01-06T09:06:28.559Z,924.58
2018-01-06T09:08:00.529Z,924.65
2018-01-06T09:09:32.196Z,924.72
2018-01-06T09:11:04.018Z,924.75
2018-01-06T09:12:35.833Z,924.80
2018-01-06T09:14:07.652Z,924.80
2018-01-06T09:15:39.470Z,924.86
2018-01-06T09:17:11.288Z,924.94
2018-01-06T09:18:43.107Z,924.99
2018-01-06T09:20:14.925Z,925.00
2018-01-06T09:21:46.744Z,925.03
2018-01-06T09:23:18.563Z,925.09
2018-01-06T09:24:50.383Z,925.13
2018-01-06T09:26:22.201Z,925.18
2018-01-06T09:27:54.020Z,925.23
2018-01-06T09:29:25.840Z,925.20
2018-01-06T09:30:57.659Z,925.23
2018-01-06T09:32:29.478Z,925.23
2018-01-06T09:34:01.298Z,925.32
2018-01-06T09:35:33.118Z,925.37
2018-01-06T09:37:04.938Z,925.41
2018-01-06T09:38:36.908Z,925.44
2018-01-06T09:40:08.580Z,925.45
2018-01-06T09:41:40.403Z,925.45
2018-01-06T09:43:12.222Z,925.42
2018-01-06T09:44:44.045Z,925.43
2018-01-06T09:46:15.869Z,925.49
2018-01-06T09:47:47.689Z,925.48
2018-01-06T09:49:19.511Z,925.44
2018-01-06T09:50:51.332Z,925.53
2018-01-06T09:52:23.154Z,925.55
2018-01-06T09:53:54.977Z,925.63
2018-01-06T09:55:26.799Z,925.63
2018-01-06T09:56:58.623Z,925.50
2018-01-06T09:58:30.445Z,925.58
2018-01-06T10:00:02.268Z,925.56
2018-01-06T10:01:34.090Z,925.45
2018-01-06T10:03:05.913Z,925.47
2018-01-06T10:04:37.736Z,925.55
2018-01-06T10:06:09.558Z,925.58
2018-01-06T10:07:41.381Z,925.57
2018-01-06T10:09:13.209Z,925.57
2018-01-06T10:10:45.026Z,925.53
2018-01-06T10:12:16.868Z,925.59
2018-01-06T10:13:48.672Z,925.57
2018-01-06T10:15:20.492Z,925.62
2018-01-06T10:16:52.315Z,925.60
2018-01-06T10:18:24.136Z,925.61
2018-01-06T10:19:55.959Z,925.63
2018-01-06T10:21:27.778Z,925.61
2018-01-06T10:22:59.600Z,925.56
2018-01-06T10:24:31.421Z,925.63
2018-01-06T10:26:03.242Z,925.59
2018-01-06T10:27:35.062Z,925.57
2018-01-06T10:29:06.883Z,925.61
2018-01-06T10:30:38.705Z,925.61
2018-01-06T10:32:10.546Z,925.65
2018-01-06T10:33:42.346Z,925.67
2018-01-06T10:35:14.170Z,925.75
2018-01-06T10:36:46.040Z,925.76
2018-01-06T10:38:17.810Z,925.83
2018-01-06T10:39:49.632Z,925.79
2018-01-06T10:41:21.452Z,925.75
2018-01-06T10:42:53.273Z,925.81
2018-01-06T10:44:25.094Z,925.84
2018-01-06T10:45:56.916Z,925.80
2018-01-06T10:47:28.737Z,925.81
2018-01-06T10:49:00.576Z,925.82
2018-01-06T10:50:32.380Z,925.87
2018-01-06T10:52:04.202Z,925.78
2018-01-06T10:53:36.023Z,925.89
2018-01-06T10:55:07.844Z,925.87
2018-01-06T10:56:39.666Z,925.85
2018-01-06T10:58:11.487Z,925.79
2018-01-06T10:59:43.309Z,925.81
2018-01-06T11:01:15.130Z,925.80
2018-01-06T11:02:46.953Z,925.73
2018-01-06T11:04:18.787Z,925.80
2018-01-06T11:05:50.598Z,925.85
